createdAt,value
2023-02-28T00:00:22.539Z,2.58
2023-02-28T00:02:52.075Z,2.60
2023-02-28T00:05:21.979Z,2.62
2023-02-28T00:07:51.141Z,2.63
2023-02-28T00:10:25.876Z,2.64
2023-02-28T00:12:57.944Z,2.65
2023-02-28T00:15:26.545Z,2.65
2023-02-28T00:17:55.189Z,2.64
2023-02-28T00:20:23.816Z,2.64
2023-02-28T00:22:53.900Z,2.62
2023-02-28T00:25:24.376Z,2.62
2023-02-28T00:27:53.225Z,2.58
2023-02-28T00:30:22.836Z,2.55
2023-02-28T00:32:51.593Z,2.58
2023-02-28T00:35:20.513Z,2.62
2023-02-28T00:37:50.834Z,2.61
2023-02-28T00:40:19.441Z,2.59
2023-02-28T00:42:48.610Z,2.58
2023-02-28T00:45:17.252Z,2.57
2023-02-28T00:47:47.803Z,2.57
2023-02-28T00:50:21.507Z,2.59
2023-02-28T00:52:51.280Z,2.59
2023-02-28T00:55:19.801Z,2.60
2023-02-28T00:57:48.190Z,2.60
2023-02-28T01:00:16.810Z,2.59
2023-02-28T01:02:45.461Z,2.58
2023-02-28T01:05:13.993Z,2.60
2023-02-28T01:07:43.293Z,2.61
2023-02-28T01:10:11.970Z,2.61
2023-02-28T01:12:42.586Z,2.59
2023-02-28T01:15:13.958Z,2.55
2023-02-28T01:17:42.382Z,2.50
2023-02-28T01:20:11.450Z,2.48
2023-02-28T01:22:40.227Z,2.45
2023-02-28T01:25:09.554Z,2.44
2023-02-28T01:27:38.148Z,2.41
2023-02-28T01:30:10.411Z,2.38
2023-02-28T01:32:41.430Z,2.38
2023-02-28T01:35:09.871Z,2.38
2023-02-28T01:37:38.479Z,2.38
2023-02-28T01:40:07.645Z,2.40
2023-02-28T01:42:36.306Z,2.41
2023-02-28T01:45:23.114Z,2.39
2023-02-28T01:47:52.393Z,2.37
2023-02-28T01:50:22.928Z,2.35
2023-02-28T01:52:51.226Z,2.31
2023-02-28T01:55:23.511Z,2.29
2023-02-28T01:57:54.633Z,2.30
2023-02-28T02:00:24.798Z,2.28
2023-02-28T02:02:58.816Z,2.27
2023-02-28T02:05:32.229Z,2.27
2023-02-28T02:08:06.981Z,2.26
2023-02-28T02:10:42.282Z,2.29
2023-02-28T02:13:32.113Z,2.28
2023-02-28T02:16:09.404Z,2.26
2023-02-28T02:18:49.816Z,2.22
2023-02-28T02:21:47.816Z,2.19
2023-02-28T02:24:38.993Z,2.17
2023-02-28T02:27:12.483Z,2.18
2023-02-28T02:29:53.402Z,2.20
2023-02-28T02:32:46.467Z,2.22
2023-02-28T02:35:28.046Z,2.24
2023-02-28T02:38:50.552Z,2.25
2023-02-28T02:41:25.645Z,2.25
2023-02-28T02:43:57.011Z,2.21
2023-02-28T02:46:29.882Z,2.15
2023-02-28T02:48:58.754Z,2.12
2023-02-28T02:51:27.293Z,2.11
2023-02-28T02:54:01.012Z,2.10
2023-02-28T02:56:30.226Z,2.08
2023-02-28T02:59:02.629Z,2.07
2023-02-28T03:01:32.756Z,2.04
2023-02-28T03:04:07.388Z,1.99
2023-02-28T03:06:36.438Z,1.96
2023-02-28T03:09:05.997Z,1.93
2023-02-28T03:11:34.411Z,1.92
2023-02-28T03:14:03.692Z,1.91
2023-02-28T03:16:58.424Z,1.89
2023-02-28T03:19:54.225Z,1.84
2023-02-28T03:22:39.773Z,1.80
2023-02-28T03:25:09.739Z,1.80
2023-02-28T03:27:46.884Z,1.80
2023-02-28T03:30:26.324Z,1.81
2023-02-28T03:32:59.818Z,1.81
2023-02-28T03:35:52.899Z,1.79
2023-02-28T03:38:42.102Z,1.76
2023-02-28T03:41:15.495Z,1.71
2023-02-28T03:43:46.614Z,1.67
2023-02-28T03:46:17.147Z,1.67
2023-02-28T03:48:46.925Z,1.66
2023-02-28T03:51:18.388Z,1.64
2023-02-28T03:53:49.532Z,1.62
2023-02-28T03:56:17.717Z,1.63
2023-02-28T03:58:56.548Z,1.63
2023-02-28T04:01:33.271Z,1.62
2023-02-28T04:04:01.781Z,1.58
2023-02-28T04:06:31.852Z,1.55
2023-02-28T04:09:01.162Z,1.52
2023-02-28T04:11:38.614Z,1.45
2023-02-28T04:14:07.616Z,1.41
2023-02-28T04:16:37.800Z,1.41
2023-02-28T04:19:07.409Z,1.41
2023-02-28T04:21:38.094Z,1.38
2023-02-28T04:24:07.334Z,1.36
2023-02-28T04:26:37.118Z,1.33
2023-02-28T04:29:08.421Z,1.31
2023-02-28T04:31:37.004Z,1.30
2023-02-28T04:34:05.367Z,1.29
2023-02-28T04:36:34.799Z,1.29
2023-02-28T04:39:05.188Z,1.26
2023-02-28T04:41:34.124Z,1.24
2023-02-28T04:44:03.329Z,1.21
2023-02-28T04:46:31.980Z,1.20
2023-02-28T04:49:00.442Z,1.18
2023-02-28T04:51:30.269Z,1.17
2023-02-28T04:54:00.487Z,1.16
2023-02-28T04:56:29.440Z,1.18
2023-02-28T04:58:57.751Z,1.22
2023-02-28T05:01:28.665Z,1.25
2023-02-28T05:03:58.314Z,1.28
2023-02-28T05:06:28.190Z,1.30
2023-02-28T05:08:57.625Z,1.34
2023-02-28T05:11:36.352Z,1.38
2023-02-28T05:14:05.857Z,1.39
2023-02-28T05:16:34.209Z,1.40
2023-02-28T05:19:03.196Z,1.43
2023-02-28T05:21:35.908Z,1.46
2023-02-28T05:24:09.905Z,1.48
2023-02-28T05:26:42.552Z,1.49
2023-02-28T05:29:10.947Z,1.50
2023-02-28T05:31:39.666Z,1.52
2023-02-28T05:34:08.229Z,1.53
2023-02-28T05:36:39.827Z,1.58
2023-02-28T05:39:14.132Z,1.60
2023-02-28T05:41:43.704Z,1.60
2023-02-28T05:44:12.232Z,1.60
2023-02-28T05:46:45.287Z,1.61
2023-02-28T05:49:13.978Z,1.62
2023-02-28T05:51:42.640Z,1.63
2023-02-28T05:54:12.935Z,1.64
2023-02-28T05:56:45.137Z,1.68
2023-02-28T05:59:14.334Z,1.74
2023-02-28T06:01:49.277Z,1.80
2023-02-28T06:04:31.087Z,1.83
2023-02-28T06:07:08.763Z,1.86
2023-02-28T06:09:41.426Z,1.89
2023-02-28T06:12:11.117Z,1.95
2023-02-28T06:14:40.636Z,2.04
2023-02-28T06:17:11.413Z,2.16
2023-02-28T06:19:42.470Z,2.26
2023-02-28T06:22:10.676Z,2.33
2023-02-28T06:24:39.124Z,2.39
2023-02-28T06:27:07.633Z,2.47
2023-02-28T06:29:36.592Z,2.58
2023-02-28T06:32:05.417Z,2.70
2023-02-28T06:34:35.058Z,2.79
2023-02-28T06:37:03.497Z,2.84
2023-02-28T06:39:39.259Z,2.91
2023-02-28T06:42:07.734Z,3.00
2023-02-28T06:44:39.129Z,3.08
2023-02-28T06:47:07.600Z,3.15
2023-02-28T06:49:38.407Z,3.21
2023-02-28T06:52:08.259Z,3.25
2023-02-28T06:54:38.040Z,3.30
2023-02-28T06:57:06.554Z,3.34
2023-02-28T06:59:36.291Z,3.41
2023-02-28T07:02:08.000Z,3.50
2023-02-28T07:04:36.375Z,3.60
2023-02-28T07:07:05.575Z,3.74
2023-02-28T07:09:35.798Z,3.88
2023-02-28T07:12:04.257Z,4.00
2023-02-28T07:14:32.957Z,4.11
2023-02-28T07:17:01.202Z,4.23
2023-02-28T07:19:31.192Z,4.31
2023-02-28T07:21:59.706Z,4.35
2023-02-28T07:24:29.495Z,4.41
2023-02-28T07:26:58.420Z,4.50
2023-02-28T07:29:26.712Z,4.59
2023-02-28T07:32:00.745Z,4.65
2023-02-28T07:34:29.320Z,4.72
2023-02-28T07:36:58.575Z,4.83
2023-02-28T07:39:27.328Z,4.89
2023-02-28T07:41:55.567Z,4.93
2023-02-28T07:44:28.006Z,4.96
2023-02-28T07:46:56.429Z,4.99
2023-02-28T07:49:26.664Z,5.09
2023-02-28T07:51:55.354Z,5.21
2023-02-28T07:54:24.204Z,5.29
2023-02-28T07:56:53.164Z,5.36
2023-02-28T07:59:23.593Z,5.41
2023-02-28T08:01:52.284Z,5.44
2023-02-28T08:04:20.943Z,5.47
2023-02-28T08:07:09.361Z,5.44
2023-02-28T08:09:39.076Z,5.38
2023-02-28T08:12:08.877Z,5.35
2023-02-28T08:14:37.419Z,5.35
2023-02-28T08:17:05.798Z,5.39
2023-02-28T08:19:35.466Z,5.39
2023-02-28T08:22:07.255Z,5.41
2023-02-28T08:24:37.888Z,5.46
2023-02-28T08:27:06.286Z,5.51
2023-02-28T08:29:37.647Z,5.56
2023-02-28T08:32:09.239Z,5.61
2023-02-28T08:34:47.006Z,5.58
2023-02-28T08:37:16.321Z,5.60
2023-02-28T08:39:56.103Z,5.65
2023-02-28T08:42:35.906Z,5.61
2023-02-28T08:45:05.456Z,5.54
2023-02-28T08:47:34.024Z,5.52
2023-02-28T08:50:02.555Z,5.54
2023-02-28T08:52:31.955Z,5.59
2023-02-28T08:55:00.387Z,5.60
2023-02-28T08:57:28.661Z,5.62
2023-02-28T08:59:56.899Z,5.69
2023-02-28T09:02:25.543Z,5.79
2023-02-28T09:04:54.023Z,5.88
2023-02-28T09:07:22.345Z,5.96
2023-02-28T09:09:56.335Z,6.02
2023-02-28T09:12:25.513Z,6.09
2023-02-28T09:14:54.718Z,6.14
2023-02-28T09:17:23.599Z,6.10
2023-02-28T09:19:51.877Z,6.03
2023-02-28T09:22:20.549Z,5.99
2023-02-28T09:24:48.767Z,6.03
2023-02-28T09:27:19.559Z,6.06
2023-02-28T09:29:48.495Z,6.12
2023-02-28T09:32:18.609Z,6.15
2023-02-28T09:34:46.970Z,6.20
2023-02-28T09:37:16.020Z,6.18
2023-02-28T09:39:44.416Z,6.12
2023-02-28T09:42:20.159Z,6.08
2023-02-28T09:44:48.429Z,6.06
2023-02-28T09:47:36.131Z,6.09
2023-02-28T09:50:30.707Z,6.14
2023-02-28T09:52:59.005Z,6.18
2023-02-28T09:55:46.287Z,6.19
2023-02-28T09:58:25.124Z,6.21
2023-02-28T10:01:01.780Z,6.27
2023-02-28T10:03:53.397Z,6.29
2023-02-28T10:06:22.064Z,6.32
2023-02-28T10:08:58.716Z,6.37
2023-02-28T10:11:27.668Z,6.42
2023-02-28T10:14:02.662Z,6.43
2023-02-28T10:16:46.221Z,6.55
2023-02-28T10:19:33.785Z,6.66
2023-02-28T10:22:06.788Z,6.69
2023-02-28T10:24:49.234Z,6.69
2023-02-28T10:27:21.278Z,6.68
2023-02-28T10:29:51.529Z,6.67
2023-02-28T10:32:40.958Z,6.73
2023-02-28T10:35:19.393Z,6.80
2023-02-28T10:37:50.022Z,6.87
2023-02-28T10:40:23.905Z,6.87
2023-02-28T10:43:00.838Z,6.80
2023-02-28T10:45:33.170Z,6.79
2023-02-28T10:48:05.513Z,6.75
2023-02-28T10:50:43.974Z,6.69
2023-02-28T10:53:29.692Z,6.70
2023-02-28T10:56:14.253Z,6.63
2023-02-28T10:59:02.440Z,6.46
2023-02-28T11:01:46.340Z,6.33
2023-02-28T11:04:23.878Z,6.25
2023-02-28T11:07:04.236Z,6.24
2023-02-28T11:09:36.897Z,6.31
2023-02-28T11:12:23.664Z,6.29
2023-02-28T11:15:26.720Z,6.15
2023-02-28T11:18:07.804Z,5.99
2023-02-28T11:20:37.806Z,5.80
2023-02-28T11:23:06.698Z,5.68
2023-02-28T11:25:36.447Z,5.67
2023-02-28T11:28:27.437Z,5.75
2023-02-28T11:31:06.197Z,5.72
2023-02-28T11:33:58.635Z,5.58
2023-02-28T11:36:29.198Z,5.58
2023-02-28T11:39:02.903Z,5.63
2023-02-28T11:41:49.083Z,5.66
2023-02-28T11:44:39.673Z,5.65
2023-02-28T11:47:14.462Z,5.61
2023-02-28T11:49:57.989Z,5.63
2023-02-28T11:52:52.966Z,5.64
2023-02-28T11:55:37.110Z,5.64
2023-02-28T11:58:46.151Z,5.62
2023-02-28T12:01:44.168Z,5.59
2023-02-28T12:04:12.525Z,5.59
2023-02-28T12:07:01.580Z,5.60
2023-02-28T12:09:48.335Z,5.53
2023-02-28T12:12:33.674Z,5.46
2023-02-28T12:15:30.405Z,5.54
2023-02-28T12:18:27.220Z,5.72
2023-02-28T12:21:11.145Z,5.88
2023-02-28T12:23:58.136Z,5.91
2023-02-28T12:26:47.904Z,5.89
2023-02-28T12:29:18.379Z,5.93
2023-02-28T12:31:50.784Z,6.01
2023-02-28T12:34:40.652Z,6.08
2023-02-28T12:37:11.833Z,6.17
2023-02-28T12:39:50.253Z,6.14
2023-02-28T12:42:30.911Z,6.02
2023-02-28T12:45:10.365Z,5.95
2023-02-28T12:47:40.022Z,5.87
2023-02-28T12:50:12.829Z,5.82
2023-02-28T12:52:54.866Z,5.78
2023-02-28T12:55:37.968Z,5.75
2023-02-28T12:58:12.563Z,5.72
2023-02-28T13:00:50.524Z,5.69
2023-02-28T13:03:50.655Z,5.67
2023-02-28T13:06:43.789Z,5.61
2023-02-28T13:09:16.732Z,5.54
2023-02-28T13:11:46.565Z,5.53
2023-02-28T13:14:22.060Z,5.56
2023-02-28T13:17:00.917Z,5.57
2023-02-28T13:19:31.672Z,5.55
2023-02-28T13:22:01.643Z,5.50
2023-02-28T13:24:37.145Z,5.45
2023-02-28T13:27:06.392Z,5.42
2023-02-28T13:29:43.219Z,5.43
2023-02-28T13:32:12.074Z,5.43
2023-02-28T13:35:08.672Z,5.45
2023-02-28T13:37:42.898Z,5.50
2023-02-28T13:40:11.470Z,5.54
2023-02-28T13:42:50.902Z,5.59
2023-02-28T13:45:24.748Z,5.55
2023-02-28T13:48:26.001Z,5.50
2023-02-28T13:50:54.711Z,5.40
2023-02-28T13:53:42.930Z,5.26
2023-02-28T13:56:28.809Z,5.09
2023-02-28T13:59:07.406Z,4.97
2023-02-28T14:01:54.431Z,4.91
2023-02-28T14:04:23.237Z,4.86
2023-02-28T14:06:52.621Z,4.80
2023-02-28T14:09:34.716Z,4.74
2023-02-28T14:12:44.229Z,4.70
2023-02-28T14:15:40.218Z,4.66
2023-02-28T14:32:50.224Z,4.91
2023-02-28T14:35:21.169Z,4.86
2023-02-28T14:37:49.249Z,4.73
2023-02-28T14:40:26.497Z,4.59
2023-02-28T14:42:58.647Z,4.44
2023-02-28T14:45:25.915Z,4.34
2023-02-28T14:47:53.295Z,4.28
2023-02-28T14:50:25.227Z,4.19
2023-02-28T14:52:59.474Z,4.14
2023-02-28T14:55:33.267Z,4.11
2023-02-28T14:58:04.697Z,4.06
2023-02-28T15:00:36.167Z,3.98
2023-02-28T15:03:25.483Z,3.92
2023-02-28T15:06:02.986Z,3.85
2023-02-28T15:08:32.350Z,3.78
2023-02-28T15:11:01.966Z,3.71
2023-02-28T15:13:49.888Z,3.65
2023-02-28T15:16:26.754Z,3.62
2023-02-28T15:19:02.045Z,3.60
2023-02-28T15:21:37.094Z,3.57
2023-02-28T15:24:25.177Z,3.52
2023-02-28T15:26:56.824Z,3.46
2023-02-28T15:29:25.473Z,3.40
2023-02-28T15:31:58.329Z,3.36
2023-02-28T15:34:46.781Z,3.32
2023-02-28T15:37:34.360Z,3.26
2023-02-28T15:40:29.582Z,3.22
2023-02-28T15:43:34.008Z,3.17
2023-02-28T15:46:07.771Z,3.15
2023-02-28T15:48:36.532Z,3.09
2023-02-28T15:51:13.344Z,3.03
2023-02-28T15:53:47.834Z,2.97
2023-02-28T15:56:26.251Z,2.90
2023-02-28T15:59:01.746Z,2.83
2023-02-28T16:01:38.911Z,2.75
2023-02-28T16:04:16.189Z,2.70
2023-02-28T16:07:07.712Z,2.69
2023-02-28T16:09:39.789Z,2.68
2023-02-28T16:12:13.937Z,2.66
2023-02-28T16:14:41.259Z,2.64
2023-02-28T16:17:17.559Z,2.62
2023-02-28T16:19:45.013Z,2.60
2023-02-28T16:22:12.326Z,2.56
2023-02-28T16:24:40.820Z,2.52
2023-02-28T16:27:11.215Z,2.47
2023-02-28T16:29:42.315Z,2.43
2023-02-28T16:32:12.489Z,2.38
2023-02-28T16:34:42.758Z,2.34
2023-02-28T16:37:14.992Z,2.32
2023-02-28T16:39:43.056Z,2.31
2023-02-28T16:42:25.823Z,2.29
2023-02-28T16:44:53.763Z,2.27
2023-02-28T16:47:21.502Z,2.23
2023-02-28T16:49:48.709Z,2.19
2023-02-28T16:52:16.030Z,2.16
2023-02-28T16:54:43.914Z,2.12
2023-02-28T16:57:19.602Z,2.09
2023-02-28T16:59:46.738Z,2.07
2023-02-28T17:02:15.240Z,2.04
2023-02-28T17:04:43.079Z,1.98
2023-02-28T17:07:12.838Z,1.93
2023-02-28T17:09:43.571Z,1.89
2023-02-28T17:12:15.128Z,1.84
2023-02-28T17:14:42.568Z,1.80
2023-02-28T17:17:15.680Z,1.78
2023-02-28T17:19:44.337Z,1.76
2023-02-28T17:22:11.482Z,1.74
2023-02-28T17:24:38.644Z,1.71
2023-02-28T17:27:08.267Z,1.66
2023-02-28T17:29:35.535Z,1.59
2023-02-28T17:32:16.023Z,1.53
2023-02-28T17:34:46.333Z,1.47
2023-02-28T17:37:14.072Z,1.41
2023-02-28T17:39:41.350Z,1.38
2023-02-28T17:42:09.340Z,1.36
2023-02-28T17:44:38.467Z,1.33
2023-02-28T17:47:05.640Z,1.30
2023-02-28T17:49:33.748Z,1.27
2023-02-28T17:52:00.723Z,1.21
2023-02-28T17:54:28.285Z,1.15
2023-02-28T17:56:55.994Z,1.12
2023-02-28T17:59:23.427Z,1.09
2023-02-28T18:01:50.676Z,1.05
2023-02-28T18:04:17.966Z,1.01
2023-02-28T18:06:50.274Z,0.97
2023-02-28T18:09:19.096Z,0.93
2023-02-28T18:11:50.646Z,0.87
2023-02-28T18:14:18.450Z,0.79
2023-02-28T18:16:50.060Z,0.74
2023-02-28T18:19:17.932Z,0.69
2023-02-28T18:21:46.289Z,0.66
2023-02-28T18:24:13.628Z,0.62
2023-02-28T18:26:41.099Z,0.59
2023-02-28T18:29:12.007Z,0.55
2023-02-28T18:31:39.439Z,0.53
2023-02-28T18:34:07.042Z,0.51
2023-02-28T18:36:34.709Z,0.50
2023-02-28T18:39:02.194Z,0.49
2023-02-28T18:41:29.919Z,0.49
2023-02-28T18:43:57.105Z,0.49
2023-02-28T18:46:24.893Z,0.47
2023-02-28T18:48:52.053Z,0.47
2023-02-28T18:51:21.701Z,0.47
2023-02-28T18:53:50.579Z,0.46
2023-02-28T18:56:19.398Z,0.45
2023-02-28T18:58:47.224Z,0.47
2023-02-28T19:01:20.682Z,0.48
2023-02-28T19:03:48.267Z,0.49
2023-02-28T19:06:18.724Z,0.49
2023-02-28T19:08:58.676Z,0.48
2023-02-28T19:11:25.907Z,0.48
2023-02-28T19:13:54.499Z,0.47
2023-02-28T19:16:22.432Z,0.45
2023-02-28T19:18:49.505Z,0.41
2023-02-28T19:21:18.051Z,0.39
2023-02-28T19:23:45.059Z,0.36
2023-02-28T19:26:20.430Z,0.36
2023-02-28T19:28:47.620Z,0.35
2023-02-28T19:31:15.919Z,0.35
2023-02-28T19:33:43.259Z,0.35
2023-02-28T19:36:11.985Z,0.35
2023-02-28T19:38:40.007Z,0.32
2023-02-28T19:41:09.286Z,0.30
2023-02-28T19:43:37.259Z,0.30
2023-02-28T19:46:09.038Z,0.26
2023-02-28T19:48:37.354Z,0.19
2023-02-28T19:51:09.180Z,0.15
2023-02-28T19:53:37.064Z,0.14
2023-02-28T19:56:04.167Z,0.13
2023-02-28T19:58:31.892Z,0.11
2023-02-28T20:01:06.230Z,0.10
2023-02-28T20:03:33.543Z,0.08
2023-02-28T20:06:01.968Z,0.05
2023-02-28T20:08:29.136Z,0.03
2023-02-28T20:11:11.091Z,-0.00
2023-02-28T20:13:38.356Z,-0.02
2023-02-28T20:16:08.446Z,-0.06
2023-02-28T20:18:37.063Z,-0.11
2023-02-28T20:21:04.519Z,-0.14
2023-02-28T20:23:31.515Z,-0.17
2023-02-28T20:25:59.963Z,-0.20
2023-02-28T20:28:27.448Z,-0.22
2023-02-28T20:30:55.214Z,-0.24
2023-02-28T20:33:22.192Z,-0.25
2023-02-28T20:35:52.043Z,-0.27
2023-02-28T20:38:19.790Z,-0.29
2023-02-28T20:40:49.100Z,-0.32
2023-02-28T20:43:17.014Z,-0.33
2023-02-28T20:45:51.053Z,-0.35
2023-02-28T20:48:18.174Z,-0.35
2023-02-28T20:50:50.785Z,-0.36
2023-02-28T20:53:19.373Z,-0.37
2023-02-28T20:56:00.842Z,-0.37
2023-02-28T20:58:30.280Z,-0.38
2023-02-28T21:01:02.001Z,-0.39
2023-02-28T21:03:29.270Z,-0.39
2023-02-28T21:06:02.125Z,-0.40
2023-02-28T21:08:30.109Z,-0.40
2023-02-28T21:10:58.578Z,-0.42
2023-02-28T21:13:26.279Z,-0.41
2023-02-28T21:15:56.189Z,-0.41
2023-02-28T21:18:25.763Z,-0.42
2023-02-28T21:20:52.871Z,-0.42
2023-02-28T21:23:21.792Z,-0.42
2023-02-28T21:25:49.324Z,-0.42
2023-02-28T21:28:18.476Z,-0.41
2023-02-28T21:30:45.814Z,-0.37
2023-02-28T21:33:12.800Z,-0.31
2023-02-28T21:35:40.335Z,-0.26
2023-02-28T21:38:07.412Z,-0.22
2023-02-28T21:40:34.613Z,-0.19
2023-02-28T21:43:02.137Z,-0.14
2023-02-28T21:45:29.599Z,-0.11
2023-02-28T21:47:57.036Z,-0.10
2023-02-28T21:50:24.447Z,-0.11
2023-02-28T21:52:52.675Z,-0.12
2023-02-28T21:55:19.604Z,-0.12
2023-02-28T21:57:47.614Z,-0.12
2023-02-28T22:00:16.489Z,-0.10
2023-02-28T22:02:44.186Z,-0.09
2023-02-28T22:05:11.247Z,-0.10
2023-02-28T22:07:41.506Z,-0.08
2023-02-28T22:10:09.810Z,-0.07
2023-02-28T22:12:36.807Z,-0.04
2023-02-28T22:15:04.331Z,-0.01
2023-02-28T22:17:31.781Z,0.01
2023-02-28T22:19:59.170Z,0.05
2023-02-28T22:22:31.346Z,0.07
2023-02-28T22:24:58.261Z,0.10
2023-02-28T22:27:25.646Z,0.10
2023-02-28T22:29:55.624Z,0.10
2023-02-28T22:32:22.832Z,0.09
2023-02-28T22:34:51.450Z,0.09
2023-02-28T22:37:18.566Z,0.09
2023-02-28T22:39:47.801Z,0.07
2023-02-28T22:42:14.651Z,0.10
2023-02-28T22:44:42.942Z,0.16
2023-02-28T22:47:09.990Z,0.23
2023-02-28T22:49:36.867Z,0.26
2023-02-28T22:52:04.049Z,0.28
2023-02-28T22:54:31.055Z,0.33
2023-02-28T22:56:59.178Z,0.38
2023-02-28T22:59:26.055Z,0.41
2023-02-28T23:01:53.921Z,0.42
2023-02-28T23:04:20.853Z,0.43
2023-02-28T23:06:48.370Z,0.41
2023-02-28T23:09:21.257Z,0.37
2023-02-28T23:11:49.514Z,0.29
2023-02-28T23:14:17.283Z,0.25
2023-02-28T23:16:46.442Z,0.25
2023-02-28T23:19:15.699Z,0.32
2023-02-28T23:21:43.979Z,0.31
2023-02-28T23:24:11.951Z,0.27
2023-02-28T23:26:42.753Z,0.22
2023-02-28T23:29:10.909Z,0.13
2023-02-28T23:31:37.828Z,0.06
2023-02-28T23:34:05.855Z,0.01
2023-02-28T23:36:34.767Z,-0.05
2023-02-28T23:39:01.826Z,-0.08
2023-02-28T23:41:29.355Z,-0.09
2023-02-28T23:43:56.952Z,-0.10
2023-02-28T23:46:24.214Z,-0.13
2023-02-28T23:48:51.252Z,-0.19
2023-02-28T23:51:19.591Z,-0.26
2023-02-28T23:53:48.911Z,-0.28
2023-02-28T23:56:17.992Z,-0.28
2023-02-28T23:58:46.983Z,-0.23
